Highland, Minnesota
Current Conditions -  °F | °C
As of 3:35 AM on Sunday 23 Nov 2014 (Local Time) from KFKA Reporting Station
Haze Haze  
Wind Chill:   Ceiling: 300
Heat Index:   Visibility: 4mi
Dew Point:   Wind: 14mph
Humidity: 96%   Direction: 200°SSW
Pressure: 29.54"   Gusts: 20mph
Location:  43.7165°N, 91.9871°W
Report Text: KFKA 230935Z AUTO 20012G17KT 4SM BR OVC003 09/08 A2954 RMK AO2 T00870081
Loading
Personal Weather Stations






























Interactive Weather Map New forecast layout! Learn more

10-Day Weather Forecast

Advertisements
Track Severe Weather on mobile